South Reno (Wolf Run), Nevada Weather observations

Data are for observation ending at time listed.
 Day   Time    Ave.   Ave.  Ave.  Vector   Max.   Stn.    Total    Solar   Ave.  
  of    of     Air    Rel.  Wind   Wind    Wind   Baro.  Precip.   Rad.    Soil  
Year   Day     Temp.  Hum.  Speed  Dir.    Gust   Pres.                    Temp. 
2017   (PST)    F      %     mph   deg.    mph     mb.     in.     W/m2     F   
------------------------------------------------------------------------------
  35   21:00   42.9    52   10.3   210     17.1  99999.0    0.00       0    38.0
  35   21:10   42.9    52    6.4   233     13.5  99999.0    0.00       0    38.0
  35   21:20   42.0    54    4.3   283      9.3  99999.0    0.00       0    37.9
  35   21:30   42.2    54    4.1   265      9.5  99999.0    0.00       0    37.9
  35   21:40   42.5    53    3.2   203      8.8  99999.0    0.00       0    37.9
  35   21:50   42.8    53    5.4   212     10.6  99999.0    0.00       0    37.9
  35   22:00   42.8    53    7.2   228     15.8  99999.0    0.00       0    37.9
  35   22:10   42.4    55    7.2   212     12.3  99999.0    0.00       0    37.8
  35   22:20   42.4    55    8.4   209     13.5  99999.0    0.00       0    37.8
  35   22:30   42.4    54    8.3   193     16.0  99999.0    0.00       0    37.8
  35   22:40   42.3    55    8.9   196     13.3  99999.0    0.00       0    37.8
  35   22:50   42.4    54    8.0   192     13.3  99999.0    0.00       0    37.7
  35   23:00   42.3    53    8.8   192     14.5  99999.0    0.00       0    37.7
  35   23:10   42.3    54    9.1   193     14.8  99999.0    0.00       0    37.7
  35   23:20   42.5    53    9.1   204     17.3  99999.0    0.00       0    37.7
  35   23:30   42.8    50    8.4   193     13.2  99999.0    0.00       0    37.7
  35   23:40   42.9    49    8.2   185     13.8  99999.0    0.00       0    37.6
  35   23:50   42.8    48    6.8   182     14.0  99999.0    0.00       0    37.6
  36    0:00   42.9    46    6.3   185     11.8  99999.0    0.00       0    37.6
  36    0:10   42.4    46    5.5   194      9.6  99999.0    0.00       0    37.6
  36    0:20   42.6    46    6.4   182     12.0  99999.0    0.00       0    37.6
  36    0:30   42.9    44    5.7   157      9.9  99999.0    0.00       0    37.5
  36    0:40   43.1    42    4.5   160     10.8  99999.0    0.00       0    37.5
  36    0:50   41.1    53    3.5    47     10.5  99999.0    0.00       0    37.5
  36    1:00   38.7    61    1.6   330      4.1  99999.0    0.00       0    37.5
  36    1:10   38.7    61    3.6    33      8.6  99999.0    0.00       0    37.4
  36    1:20   40.2    58    4.4   275     11.2  99999.0    0.00       0    37.4
  36    1:30   38.0    64    3.4   311      6.8  99999.0    0.00       0    37.4
  36    1:40   38.0    64    3.6   305      6.9  99999.0    0.00       0    37.4
  36    1:50   38.7    61    4.0   317      7.3  99999.0    0.00       0    37.3
  36    2:00   39.2    61    3.8   306      8.7  99999.0    0.00       0    37.3
  36    2:10   38.3    62    1.6   291      6.0  99999.0    0.00       0    37.3
  36    2:20   37.3    64    1.9   311      5.3  99999.0    0.00       0    37.3
  36    2:30   36.9    65    2.0   320      6.1  99999.0    0.00       0    37.2
  36    2:40   36.9    65    0.8   224      2.9  99999.0    0.00       0    37.2
  36    2:50   36.2    66    1.1   146      3.8  99999.0    0.00       0    37.2
  36    3:00   34.0    69    1.8   223      4.7  99999.0    0.00       0    37.2
  36    3:10   33.6    70    2.1   235      4.2  99999.0    0.00       0    37.1
  36    3:20   32.8    74    2.3   233      5.0  99999.0    0.00       0    37.1
  36    3:30   34.1    70    2.1   223      5.7  99999.0    0.00       0    37.1
  36    3:40   34.0    71    2.2   224      5.1  99999.0    0.00       0    37.0
  36    3:50   34.7    68    2.1   242      7.2  99999.0    0.00       0    37.0
  36    4:00   34.0    69    1.1   238      3.5  99999.0    0.00       0    37.0
  36    4:10   34.2    68    1.1   249      4.2  99999.0    0.00       0    37.0
  36    4:20   33.7    71    2.2   292      4.6  99999.0    0.00       0    36.9
  36    4:30   34.7    70    2.3   260      6.6  99999.0    0.00       0    36.9
  36    4:40   35.2    69    1.2   324      3.4  99999.0    0.00       0    36.9
  36    4:50   34.1    72    1.6   278      4.7  99999.0    0.00       0    36.8
  36    5:00   34.5    71    1.5   288      4.2  99999.0    0.00       0    36.8
  36    5:10   34.9    70    1.4   215      4.6  99999.0    0.00       0    36.8
  36    5:20   33.9    73    2.3   155      6.9  99999.0    0.00       0    36.8
  36    5:30   34.5    72    2.9   246      6.9  99999.0    0.00       0    36.7
  36    5:40   34.4    71    0.5   140      3.7  99999.0    0.00       0    36.7
  36    5:50   33.9    72    0.1   248      1.1  99999.0    0.00       0    36.7
  36    6:00   32.6    74    1.6   225      4.3  99999.0    0.00       0    36.6
  36    6:10   31.0    79    2.9   236      5.9  99999.0    0.00       0    36.6
  36    6:20   32.2    77    1.4   232      5.1  99999.0    0.00       0    36.6
  36    6:30   33.6    72    0.3   137      1.5  99999.0    0.00       0    36.5
  36    6:40   32.2    76    1.5   165      3.1  99999.0    0.00       0    36.5
  36    6:50   31.0    78    1.6   239      3.5  99999.0    0.00       0    36.5
  36    7:00   30.1    81    2.7   244      6.1  99999.0    0.00       1    36.4
  36    7:10   31.1    79    1.3   241      4.9  99999.0    0.00       5    36.4
  36    7:20   32.2    76    0.6   247      2.1  99999.0    0.00      15    36.4
  36    7:30   33.3    74    0.5   179      1.7  99999.0    0.00      39    36.4
  36    7:40   35.0    69    0.4   256      3.3  99999.0    0.00      69    36.3
  36    7:50   34.7    71    0.9   233      3.4  99999.0    0.00      89    36.3
  36    8:00   35.8    70    2.0   101      4.5  99999.0    0.00     129    36.3
  36    8:10   35.4    71    1.6    70      2.6  99999.0    0.00     151    36.3
  36    8:20   36.3    69    1.1   114      3.0  99999.0    0.00     186    36.3
  36    8:30   37.4    68    0.3   196      2.0  99999.0    0.00     224    36.2
  36    8:40   39.1    64    0.6   332      2.3  99999.0    0.00     280    36.2
  36    8:50   40.6    60    1.5   330      4.2  99999.0    0.00     313    36.2
  36    9:00   40.8    58    3.5   352      5.8  99999.0    0.00     336    36.2
  36    9:10   42.0    56    2.9    72      6.2  99999.0    0.00     349    36.2
  36    9:20   41.4    58    2.9    32      5.6  99999.0    0.00     334    36.1
  36    9:30   41.0    60    2.7    88      5.6  99999.0    0.00     391    36.1
  36    9:40   40.8    61    3.0    78      6.5  99999.0    0.00     387    36.1
  36    9:50   40.5    62    3.6    67      6.4  99999.0    0.00     404    36.1
  36   10:00   41.5    61    2.8    73      5.5  99999.0    0.00     452    36.0
  36   10:10   43.2    58    3.5   110      9.4  99999.0    0.00     528    36.0
  36   10:20   50.5    34    8.5   156     13.8  99999.0    0.00     586    36.0
  36   10:30   52.6    31    9.1   158     14.0  99999.0    0.00     667    36.0
  36   10:40   52.7    31    8.9   165     13.4  99999.0    0.00     691    36.0
  36   10:50   52.9    31    7.3   173     12.3  99999.0    0.00     657    36.0
  36   11:00   52.6    32    7.5   172     18.0  99999.0    0.00     521    36.0
  36   11:10   52.7    32    9.5   179     17.1  99999.0    0.00     578    36.1
  36   11:20   52.1    33   11.1   187     17.0  99999.0    0.00     635    36.1
  36   11:30   51.8    34   10.0   175     17.8  99999.0    0.00     666    36.2
  36   11:40   51.7    35   12.0   170     22.2  99999.0    0.00     642    36.2
  36   11:50   51.7    37   10.9   170     17.4  99999.0    0.00     632    36.3
  36   12:00   52.2    36   10.3   178     16.1  99999.0    0.00     639    36.4
  36   12:10   52.7    36    9.7   182     17.5  99999.0    0.00     645    36.4
  36   12:20   52.3    36   10.9   160     18.0  99999.0    0.00     644    36.5
  36   12:30   52.4    35   11.9   168     19.6  99999.0    0.00     639    36.6
  36   12:40   53.0    34   10.5   166     15.6  99999.0    0.00     637    36.7
  36   12:50   53.5    33    9.7   170     16.7  99999.0    0.00     635    36.8
  36   13:00   53.9    33    9.5   163     15.6  99999.0    0.00     626    36.9
  36   13:10   54.1    32   10.5   156     17.2  99999.0    0.00     612    37.0
  36   13:20   54.6    32    9.8   159     15.2  99999.0    0.00     586    37.1
  36   13:30   55.1    31    9.8   159     16.6  99999.0    0.00     564    37.2
  36   13:40   55.2    32    9.1   162     15.0  99999.0    0.00     558    37.3
  36   13:50   55.5    31    8.5   173     17.0  99999.0    0.00     508    37.4
  36   14:00   55.4    32    7.7   185     12.8  99999.0    0.00     513    37.5
  36   14:10   55.5    29    8.3   200     13.6  99999.0    0.00     442    37.6
  36   14:20   54.9    29    9.8   197     18.7  99999.0    0.00     464    37.7
  36   14:30   54.0    30   10.9   207     15.6  99999.0    0.00     489    37.7
  36   14:40   54.0    30    9.6   208     17.2  99999.0    0.00     493    37.8
  36   14:50   54.6    29    8.0   209     16.1  99999.0    0.00     460    37.9
  36   15:00   55.3    27    8.9   194     18.4  99999.0    0.00     570    38.0
  36   15:10   55.2    24   10.7   205     20.5  99999.0    0.00     490    38.1
  36   15:20   55.0    25    9.0   205     14.8  99999.0    0.00     440    38.2
  36   15:30   54.1    27    9.8   211     17.4  99999.0    0.00     409    38.3
  36   15:40   53.5    28   11.0   210     20.1  99999.0    0.00     375    38.3
  36   15:50   53.4    28    9.7   202     17.1  99999.0    0.00     388    38.4
  36   16:00   53.2    28   10.2   205     17.0  99999.0    0.00     342    38.5
  36   16:10   52.9    28    9.7   205     19.1  99999.0    0.00     266    38.6
  36   16:20   52.8    26    7.4   198     14.8  99999.0    0.00     205    38.6
  36   16:30   52.4    25    9.3   192     20.0  99999.0    0.00     144    38.7
  36   16:40   51.4    25    8.8   194     17.1  99999.0    0.00      66    38.7
  36   16:50   50.5    26   10.1   191     18.0  99999.0    0.00      34    38.8
  36   17:00   50.2    26   10.5   196     19.5  99999.0    0.00      40    38.8
  36   17:10   49.7    26   10.0   192     22.9  99999.0    0.00      34    38.9
  36   17:20   49.1    25   12.4   190     20.2  99999.0    0.00      14    38.9
  36   17:30   48.3    26   12.5   199     22.3  99999.0    0.00       4    38.9
  36   17:40   47.5    29   12.3   202     19.8  99999.0    0.00       1    38.9
  36   17:50   46.7    32   10.2   199     16.9  99999.0    0.00       0    39.0
  36   18:00   46.6    31    9.4   199     16.1  99999.0    0.00       0    39.0
  36   18:10   46.6    29    9.2   198     20.0  99999.0    0.00       0    39.0
  36   18:20   47.1    24    8.8   190     14.0  99999.0    0.00       0    39.0
  36   18:30   47.3    22    9.2   175     15.3  99999.0    0.00       0    39.0
  36   18:40   47.3    23   10.4   175     18.9  99999.0    0.00       0    38.9
  36   18:50   47.2    23   12.6   166     22.5  99999.0    0.00       0    38.9
  36   19:00   46.9    30   13.1   183     22.6  99999.0    0.00       0    38.9
  36   19:10   45.8    36   12.9   196     22.7  99999.0    0.00       0    38.9
  36   19:20   44.7    38   13.6   194     21.9  99999.0    0.00       0    38.9
  36   19:30   41.6    55   14.8   209     24.5  99999.0    0.00       0    38.9
  36   19:40   38.3    72   16.1   189     26.7  99999.0    0.00       0    38.8
  36   19:50   38.5    68   17.8   187     31.2  99999.0    0.00       0    38.8
  36   20:00   40.4    60   19.0   211     31.9  99999.0    0.00       0    38.8
  36   20:10   39.3    67   16.9   213     26.0  99999.0    0.00       0    38.7
  36   20:20   38.1    74   15.2   204     23.6  99999.0    0.00       0    38.7
  36   20:30   37.7    75   14.3   196     24.3  99999.0    0.00       0    38.7
  36   20:40   36.2    81   12.9   191     21.5  99999.0    0.01       0    38.7
  36   20:50   36.8    78   14.1   199     22.8  99999.0    0.00       0    38.6

Return to South Reno, Nevada graphs page.


Western Regional Climate Center,wrcc@dri.edu